Isle of Jura, United Kingdom
Current Conditions -  °F | °C
As of 9:20 PM on Friday 24 Oct 2014 (Local Time) from EGPI Reporting Station
Clear Clear  
Wind Chill: 50°   Ceiling: Unl
Heat Index: 50°   Visibility: 6mi
Dew Point: 46°   Wind: 23mph
Humidity: 87%   Direction: 230°SW
Pressure: 29.71"   Gusts: NA
Location:  55.84°N, 5.95°W
Report Text: EGPI 242020Z AUTO 23020KT 190V250 9999 NCD 10/08 Q1006 RERA
Loading
Personal Weather Stations






























Interactive Weather Map New forecast layout! Learn more

10-Day Weather Forecast

Advertisements
Track Severe Weather on mobile